Terminal Aerodrome Forecast
Issued by NWS Atlanta, GA

Current Version | Previous Version | Text Only | Print | Product List | Glossary On
Versions: 1 2 3 4 5 6 7 8 9 10 11 12 13 14 15 16 17 18 19 20 21 22
000
FTUS42 KFFC 240305 AAA
TAFCSG
TAF AMD
KCSG 240305Z 2403/2424 20010KT P6SM OVC015
     FM240400 20008KT 2SM BR OVC006
     FM241400 24010G15KT P6SM BKN015 OVC030
     FM241600 25010G20KT P6SM SCT035
     FM242300 27007KT P6SM FEW200=

USA.gov is the U.S. government's official web portal to all federal, state and local government web resources and services.